Terminal Aerodrome Forecast
Issued by NWS Louisville, KY

Home | Current Version | Previous Version | Text Only | Print | Product List | Glossary On
Versions: 1 2 3 4 5 6 7 8 9 10 11 12 13 14 15 16 17 18 19
088
FTUS43 KLMK 241120
TAFSDF
TAF
KSDF 241120Z 2412/2518 VRB03KT P6SM BKN250
     FM241500 21006KT P6SM SCT045
      TEMPO 2422/2501 BKN050
     FM250200 20003KT P6SM FEW250
      TEMPO 2509/2512 5SM HZ
     FM251500 22006KT P6SM SCT040=

USA.gov is the U.S. government's official web portal to all federal, state and local government web resources and services.